Terminal Aerodrome Forecast
Issued by NWS Missoula, MT

Home | Current Version | Previous Version | Text Only | Print | Product List | Glossary On
Versions: 1 2 3 4 5 6 7 8 9 10 11 12 13 14 15 16
000
FTUS45 KMSO 171904 AAA
TAFGPI
TAF AMD
KGPI 171904Z 1719/1818 19015G28KT P6SM SCT080 WS020/25050KT
     FM172300 25017G25KT P6SM VCSH BKN080
     FM180600 20007KT P6SM BKN150=

USA.gov is the U.S. government's official web portal to all federal, state and local government web resources and services.